Time;durP1;ratioP1;P1;durP2;ratioP2;P2;SDS_P1;SDS_P2;PMS_P1;PMS_P2;Temp;Humidity;BMP_temperature;BMP_pressure;BME280_temperature;BME280_humidity;BME280_pressure;Samples;Min_cycle;Max_cycle;Signal;HPM_P1;HPM_P2
2021/09/27 00:01:25;;;;;;;3.47;3.13;;;;;;;;;;5031479;28;20037;-61
2021/09/27 00:03:52;;;;;;;3.90;3.70;;;;;;;;;;5030757;28;20048;-60
2021/09/27 00:06:18;;;;;;;4.88;4.57;;;;;;;;;;5030026;28;20432;-60
2021/09/27 00:08:45;;;;;;;4.75;4.40;;;;;;;;;;5031398;28;20071;-60
2021/09/27 00:11:20;;;;;;;3.58;3.38;;;;;;;;;;5030280;28;20045;-60
2021/09/27 00:13:50;;;;;;;5.35;3.42;;;;;;;;;;5030644;28;20042;-60
2021/09/27 00:16:17;;;;;;;4.35;3.97;;;;;;;;;;5030326;28;20041;-60
2021/09/27 00:18:44;;;;;;;8.43;4.68;;;;;;;;;;5028331;28;20037;-60
2021/09/27 00:21:17;;;;;;;4.13;3.92;;;;;;;;;;5030174;28;20512;-60
2021/09/27 00:23:45;;;;;;;4.38;4.05;;;;;;;;;;5029737;28;20065;-61
2021/09/27 00:26:12;;;;;;;12.52;4.97;;;;;;;;;;5029209;28;20069;-59
2021/09/27 00:28:39;;;;;;;4.00;3.80;;;;;;;;;;5031309;28;20687;-60
2021/09/27 00:31:06;;;;;;;4.63;4.35;;;;;;;;;;5029188;28;20382;-61
2021/09/27 00:33:33;;;;;;;4.40;4.20;;;;;;;;;;5014017;28;20072;-60
2021/09/27 00:36:01;;;;;;;4.60;4.50;;;;;;;;;;5029710;28;20068;-61
2021/09/27 00:38:27;;;;;;;4.25;3.72;;;;;;;;;;5030553;28;20041;-61
2021/09/27 00:40:56;;;;;;;4.80;4.57;;;;;;;;;;5030116;28;20119;-61
2021/09/27 00:43:24;;;;;;;3.90;3.70;;;;;;;;;;5030175;28;20046;-60
2021/09/27 00:45:53;;;;;;;5.03;4.65;;;;;;;;;;5029371;28;20490;-60
2021/09/27 00:48:20;;;;;;;5.55;5.07;;;;;;;;;;5030559;28;20045;-61
2021/09/27 00:50:50;;;;;;;6.00;4.50;;;;;;;;;;5029366;28;20037;-60
2021/09/27 00:53:40;;;;;;;3.28;2.85;;;;;;;;;;5031202;28;20041;-60
2021/09/27 00:56:08;;;;;;;4.80;3.50;;;;;;;;;;5025164;28;20049;-59
2021/09/27 00:58:35;;;;;;;3.65;3.47;;;;;;;;;;5028758;28;20065;-60
2021/09/27 01:01:02;;;;;;;4.15;3.95;;;;;;;;;;5030606;28;20075;-60
2021/09/27 01:03:30;;;;;;;3.50;3.08;;;;;;;;;;5028977;28;20378;-61
2021/09/27 01:05:59;;;;;;;3.53;3.35;;;;;;;;;;5025262;28;20041;-60
2021/09/27 01:08:29;;;;;;;3.65;3.25;;;;;;;;;;5028087;28;20128;-61
2021/09/27 01:11:02;;;;;;;5.95;5.25;;;;;;;;;;5020304;28;20029;-60
2021/09/27 01:13:29;;;;;;;4.30;4.20;;;;;;;;;;5030959;28;20063;-61
2021/09/27 01:15:55;;;;;;;4.75;3.85;;;;;;;;;;5030467;28;20037;-61
2021/09/27 01:18:41;;;;;;;4.35;3.75;;;;;;;;;;5028130;28;20091;-61
2021/09/27 01:21:16;;;;;;;4.00;3.80;;;;;;;;;;5030880;28;20124;-60
2021/09/27 01:23:43;;;;;;;4.07;3.90;;;;;;;;;;5029992;28;20041;-60
2021/09/27 01:26:29;;;;;;;4.82;4.05;;;;;;;;;;5027818;28;20037;-60
2021/09/27 01:29:05;;;;;;;3.53;3.40;;;;;;;;;;5029016;28;20378;-60
2021/09/27 01:31:50;;;;;;;4.38;4.05;;;;;;;;;;5029163;28;20065;-60
2021/09/27 01:34:22;;;;;;;3.97;2.80;;;;;;;;;;5017859;28;20434;-60
2021/09/27 01:36:56;;;;;;;6.47;3.55;;;;;;;;;;5029377;28;20124;-60
2021/09/27 01:39:46;;;;;;;4.45;3.85;;;;;;;;;;5024689;28;20568;-60
2021/09/27 01:42:21;;;;;;;3.83;3.72;;;;;;;;;;5013976;28;20049;-60
2021/09/27 01:44:48;;;;;;;3.80;3.50;;;;;;;;;;5029711;28;20045;-60
2021/09/27 01:47:17;;;;;;;4.97;3.40;;;;;;;;;;5027137;28;20121;-60
2021/09/27 01:49:50;;;;;;;5.38;3.65;;;;;;;;;;5029576;28;20430;-60
2021/09/27 01:52:23;;;;;;;3.72;3.60;;;;;;;;;;5029015;28;20037;-60
2021/09/27 01:55:01;;;;;;;3.85;3.58;;;;;;;;;;5025991;28;20076;-60
2021/09/27 01:57:36;;;;;;;4.43;3.80;;;;;;;;;;5029749;28;20045;-60
2021/09/27 02:00:06;;;;;;;4.15;3.92;;;;;;;;;;5028581;28;20485;-60
2021/09/27 02:02:42;;;;;;;6.75;4.03;;;;;;;;;;5028649;28;20034;-60
2021/09/27 02:05:11;;;;;;;4.65;4.30;;;;;;;;;;5028807;28;20034;-60
2021/09/27 02:07:41;;;;;;;4.50;4.20;;;;;;;;;;5028629;28;20689;-59
2021/09/27 02:10:12;;;;;;;4.53;4.00;;;;;;;;;;5029472;28;20068;-60
2021/09/27 02:12:52;;;;;;;6.68;5.38;;;;;;;;;;5028913;28;20029;-59
2021/09/27 02:15:30;;;;;;;4.40;4.10;;;;;;;;;;5019116;28;20113;-60
2021/09/27 02:18:07;;;;;;;5.65;5.35;;;;;;;;;;5029881;28;20030;-60
2021/09/27 02:20:37;;;;;;;4.05;3.45;;;;;;;;;;5027694;28;20136;-60
2021/09/27 02:23:17;;;;;;;4.90;3.42;;;;;;;;;;5027842;28;20489;-60
2021/09/27 02:25:44;;;;;;;6.05;4.22;;;;;;;;;;5029484;28;20065;-60
2021/09/27 02:28:13;;;;;;;6.40;3.03;;;;;;;;;;5027301;28;20041;-60
2021/09/27 02:30:58;;;;;;;6.78;3.58;;;;;;;;;;5029292;28;20449;-61
2021/09/27 02:33:29;;;;;;;7.05;2.80;;;;;;;;;;5028809;28;20041;-60
2021/09/27 02:35:56;;;;;;;4.30;3.92;;;;;;;;;;5026496;28;20069;-60
2021/09/27 02:38:23;;;;;;;5.65;5.10;;;;;;;;;;5029881;28;20045;-60
2021/09/27 02:40:52;;;;;;;4.70;3.65;;;;;;;;;;5027440;28;20497;-60
2021/09/27 02:43:19;;;;;;;4.60;3.90;;;;;;;;;;5027798;28;20485;-59
2021/09/27 02:45:46;;;;;;;7.80;3.58;;;;;;;;;;5029079;28;20468;-60
2021/09/27 02:48:20;;;;;;;3.83;3.63;;;;;;;;;;5027741;28;20065;-60
2021/09/27 02:50:48;;;;;;;5.40;4.25;;;;;;;;;;5027157;28;20497;-60
2021/09/27 02:53:16;;;;;;;2.97;2.75;;;;;;;;;;5028923;28;20045;-60
2021/09/27 02:56:01;;;;;;;4.35;3.00;;;;;;;;;;5028654;28;20061;-60
2021/09/27 02:58:36;;;;;;;4.03;3.65;;;;;;;;;;5028876;28;20046;-60
2021/09/27 03:01:20;;;;;;;4.65;3.45;;;;;;;;;;5063138;28;20402;-60
2021/09/27 03:04:06;;;;;;;4.75;3.47;;;;;;;;;;5030911;28;20045;-60
2021/09/27 03:06:35;;;;;;;6.30;4.55;;;;;;;;;;5032902;28;20065;-60
2021/09/27 03:09:21;;;;;;;3.70;3.40;;;;;;;;;;5030993;28;20045;-60
2021/09/27 03:11:53;;;;;;;4.22;3.70;;;;;;;;;;5022724;28;20038;-60
2021/09/27 03:14:39;;;;;;;9.75;4.95;;;;;;;;;;5017686;28;20092;-60
2021/09/27 03:17:18;;;;;;;7.75;3.83;;;;;;;;;;5030140;28;20071;-60
2021/09/27 03:20:04;;;;;;;5.38;3.72;;;;;;;;;;5032385;28;20042;-60
2021/09/27 03:22:46;;;;;;;7.03;4.40;;;;;;;;;;5032537;28;21084;-61
2021/09/27 03:25:31;;;;;;;5.10;3.25;;;;;;;;;;5031777;28;20056;-60
2021/09/27 03:28:23;;;;;;;2.92;2.83;;;;;;;;;;5021936;28;20133;-62
2021/09/27 03:31:00;;;;;;;4.97;3.40;;;;;;;;;;5031873;28;20048;-58
2021/09/27 03:33:33;;;;;;;3.92;3.47;;;;;;;;;;5032802;28;20048;-61
2021/09/27 03:36:06;;;;;;;5.88;3.45;;;;;;;;;;5031607;28;20033;-60
2021/09/27 03:38:37;;;;;;;3.80;3.30;;;;;;;;;;5032283;28;20092;-60
2021/09/27 03:41:22;;;;;;;3.65;3.28;;;;;;;;;;5031130;28;20096;-59
2021/09/27 03:44:07;;;;;;;5.68;5.13;;;;;;;;;;5031994;28;20072;-60
2021/09/27 03:46:55;;;;;;;3.95;3.85;;;;;;;;;;5031391;28;20037;-60
2021/09/27 03:49:39;;;;;;;3.30;3.15;;;;;;;;;;5030425;28;20041;-60
2021/09/27 03:52:08;;;;;;;5.63;4.22;;;;;;;;;;5030434;28;20042;-60
2021/09/27 03:54:39;;;;;;;3.47;3.17;;;;;;;;;;5031322;28;20038;-60
2021/09/27 03:57:12;;;;;;;3.40;3.28;;;;;;;;;;5030026;28;20478;-60
2021/09/27 03:59:45;;;;;;;3.42;3.33;;;;;;;;;;5016480;28;20072;-60
2021/09/27 04:02:21;;;;;;;4.72;3.50;;;;;;;;;;5032270;28;20038;-58
2021/09/27 04:05:01;;;;;;;3.92;3.08;;;;;;;;;;5030959;28;20049;-60
2021/09/27 04:07:29;;;;;;;5.63;3.45;;;;;;;;;;5015721;28;20052;-60
2021/09/27 04:10:14;;;;;;;3.35;3.15;;;;;;;;;;5031651;28;20053;-60
2021/09/27 04:13:02;;;;;;;3.72;3.42;;;;;;;;;;5030985;28;20041;-60
2021/09/27 04:15:47;;;;;;;3.33;2.90;;;;;;;;;;5030593;28;20419;-60
2021/09/27 04:18:17;;;;;;;4.05;3.65;;;;;;;;;;5028624;28;20037;-60
2021/09/27 04:20:52;;;;;;;3.95;3.65;;;;;;;;;;5030835;28;20104;-60
2021/09/27 04:23:19;;;;;;;4.10;3.85;;;;;;;;;;5029397;28;20515;-60
2021/09/27 04:26:01;;;;;;;4.38;4.18;;;;;;;;;;5030343;28;20490;-59
2021/09/27 04:28:28;;;;;;;4.40;4.13;;;;;;;;;;5019725;28;20095;-60
2021/09/27 04:31:21;;;;;;;3.58;3.42;;;;;;;;;;5030166;28;20121;-60
2021/09/27 04:33:50;;;;;;;4.00;3.85;;;;;;;;;;5028169;28;20656;-60
2021/09/27 04:36:22;;;;;;;9.25;4.53;;;;;;;;;;5031671;28;20076;-60
2021/09/27 04:38:51;;;;;;;3.33;3.20;;;;;;;;;;5031067;28;20050;-60
2021/09/27 04:41:18;;;;;;;5.03;4.32;;;;;;;;;;5025633;28;20133;-60
2021/09/27 04:43:48;;;;;;;3.42;3.00;;;;;;;;;;5028218;28;20491;-61
2021/09/27 04:46:21;;;;;;;4.00;3.85;;;;;;;;;;5029636;28;20037;-59
2021/09/27 04:48:48;;;;;;;5.13;3.97;;;;;;;;;;5029070;28;20045;-60
2021/09/27 04:51:39;;;;;;;3.30;3.20;;;;;;;;;;5030374;28;20076;-60
2021/09/27 04:54:17;;;;;;;3.60;3.50;;;;;;;;;;5029359;28;20359;-60
2021/09/27 04:57:04;;;;;;;3.45;3.35;;;;;;;;;;5031709;28;20049;-60
2021/09/27 04:59:50;;;;;;;7.85;3.90;;;;;;;;;;5019497;28;20513;-59
2021/09/27 05:02:38;;;;;;;3.60;3.30;;;;;;;;;;5027283;28;20068;-60
2021/09/27 05:05:14;;;;;;;4.15;3.42;;;;;;;;;;5029639;28;20489;-59
2021/09/27 05:08:02;;;;;;;2.88;2.47;;;;;;;;;;5026561;28;20053;-60
2021/09/27 05:10:47;;;;;;;4.80;3.88;;;;;;;;;;5025748;28;20349;-60
2021/09/27 05:13:33;;;;;;;3.85;3.75;;;;;;;;;;5028445;28;20041;-60
2021/09/27 05:16:05;;;;;;;3.30;3.20;;;;;;;;;;5029241;28;20095;-60
2021/09/27 05:18:32;;;;;;;3.77;3.67;;;;;;;;;;5028800;28;20498;-60
2021/09/27 05:21:08;;;;;;;6.97;2.95;;;;;;;;;;5029249;28;20394;-61
2021/09/27 05:23:54;;;;;;;4.75;4.05;;;;;;;;;;5023819;28;20085;-62
2021/09/27 05:26:21;;;;;;;3.90;3.60;;;;;;;;;;5029329;28;20065;-62
2021/09/27 05:29:03;;;;;;;7.60;3.70;;;;;;;;;;5015322;28;20045;-62
2021/09/27 05:31:29;;;;;;;3.60;3.50;;;;;;;;;;5028272;28;20076;-61
2021/09/27 05:34:11;;;;;;;6.60;4.13;;;;;;;;;;5026776;28;20045;-61
2021/09/27 05:36:56;;;;;;;4.57;4.35;;;;;;;;;;5024236;28;20065;-62
2021/09/27 05:39:42;;;;;;;6.35;4.13;;;;;;;;;;5023243;28;20473;-62
2021/09/27 05:42:11;;;;;;;4.55;4.07;;;;;;;;;;5028152;28;20113;-62
2021/09/27 05:44:38;;;;;;;4.05;3.85;;;;;;;;;;5028479;28;20719;-62
2021/09/27 05:47:14;;;;;;;3.75;3.65;;;;;;;;;;5027495;28;20036;-62
2021/09/27 05:49:45;;;;;;;4.50;4.25;;;;;;;;;;5029172;28;20495;-61
2021/09/27 05:52:19;;;;;;;4.70;4.40;;;;;;;;;;5026553;28;20096;-61
2021/09/27 05:54:55;;;;;;;4.00;3.80;;;;;;;;;;5027035;28;20034;-62
2021/09/27 05:57:39;;;;;;;3.95;3.63;;;;;;;;;;5028514;28;20056;-62
2021/09/27 06:00:11;;;;;;;4.30;3.75;;;;;;;;;;5028549;28;20493;-62
2021/09/27 06:02:57;;;;;;;4.50;4.35;;;;;;;;;;5027606;28;20080;-62
2021/09/27 06:05:38;;;;;;;3.95;3.55;;;;;;;;;;5027212;28;20042;-61
2021/09/27 06:08:36;;;;;;;3.55;3.25;;;;;;;;;;5028146;28;20045;-62
2021/09/27 06:11:15;;;;;;;4.35;3.97;;;;;;;;;;5008832;28;20407;-62
2021/09/27 06:13:45;;;;;;;5.07;4.70;;;;;;;;;;5027973;28;20132;-62
2021/09/27 06:16:28;;;;;;;3.65;3.33;;;;;;;;;;5021891;28;20044;-62
2021/09/27 06:18:55;;;;;;;;;;;;;;;;;;5027350;28;20103;-61
2021/09/27 06:21:41;;;;;;;5.40;4.85;;;;;;;;;;5025947;28;19931;-61
2021/09/27 06:24:17;;;;;;;3.58;3.33;;;;;;;;;;5014153;28;20429;-61
2021/09/27 06:27:09;;;;;;;3.60;3.30;;;;;;;;;;5029514;28;20033;-62
2021/09/27 06:29:56;;;;;;;8.47;3.80;;;;;;;;;;5020050;28;20414;-62
2021/09/27 06:32:41;;;;;;;6.15;3.80;;;;;;;;;;5026695;28;20291;-62
2021/09/27 06:35:12;;;;;;;4.40;3.92;;;;;;;;;;5032722;28;20537;-61
2021/09/27 06:37:40;;;;;;;4.53;2.83;;;;;;;;;;5031791;28;20432;-61
2021/09/27 06:40:08;;;;;;;7.03;4.20;;;;;;;;;;5031531;28;20061;-61
2021/09/27 06:42:34;;;;;;;5.75;4.18;;;;;;;;;;5031588;28;20425;-61
2021/09/27 06:45:02;;;;;;;5.55;4.65;;;;;;;;;;5022315;28;20037;-61
2021/09/27 06:47:29;;;;;;;4.35;4.07;;;;;;;;;;5025018;28;20046;-62
2021/09/27 06:49:56;;;;;;;3.60;3.40;;;;;;;;;;5031910;28;20493;-62
2021/09/27 06:52:23;;;;;;;4.15;3.70;;;;;;;;;;5033336;28;20474;-61
2021/09/27 06:54:49;;;;;;;11.52;3.72;;;;;;;;;;5031020;28;20125;-60
2021/09/27 06:57:16;;;;;;;9.95;5.05;;;;;;;;;;5032448;28;20049;-61
2021/09/27 06:59:43;;;;;;;4.63;3.85;;;;;;;;;;5026514;28;20442;-62
2021/09/27 07:02:18;;;;;;;6.88;3.95;;;;;;;;;;5022695;28;21435;-62
2021/09/27 07:04:45;;;;;;;5.05;3.60;;;;;;;;;;5033182;28;20453;-61
2021/09/27 07:07:12;;;;;;;4.38;4.03;;;;;;;;;;5030082;28;20501;-61
2021/09/27 07:09:38;;;;;;;7.07;4.40;;;;;;;;;;5027907;28;20095;-61
2021/09/27 07:12:06;;;;;;;12.65;4.50;;;;;;;;;;5030900;28;20033;-60
2021/09/27 07:14:32;;;;;;;7.10;5.20;;;;;;;;;;5032357;28;20499;-61
2021/09/27 07:16:59;;;;;;;5.15;4.70;;;;;;;;;;5031241;28;20039;-62
2021/09/27 07:19:26;;;;;;;9.32;5.30;;;;;;;;;;5027824;28;20048;-61
2021/09/27 07:21:52;;;;;;;8.93;4.43;;;;;;;;;;5023231;28;20571;-62
2021/09/27 07:24:21;;;;;;;4.72;4.32;;;;;;;;;;5028658;28;20045;-61
2021/09/27 07:26:48;;;;;;;3.95;3.58;;;;;;;;;;5032444;28;20051;-62
2021/09/27 07:29:14;;;;;;;3.95;3.63;;;;;;;;;;5029848;28;20096;-61
2021/09/27 07:31:41;;;;;;;5.32;4.88;;;;;;;;;;5030203;28;20038;-61
2021/09/27 07:34:08;;;;;;;8.00;5.22;;;;;;;;;;5030975;28;20041;-60
2021/09/27 07:36:36;;;;;;;17.95;6.10;;;;;;;;;;5031986;28;20065;-60
2021/09/27 07:39:04;;;;;;;14.15;6.05;;;;;;;;;;5025150;28;20485;-61
2021/09/27 07:41:31;;;;;;;15.73;6.47;;;;;;;;;;5029487;28;20046;-61
2021/09/27 07:43:58;;;;;;;17.20;8.52;;;;;;;;;;5028934;28;20476;-61
2021/09/27 07:46:26;;;;;;;15.15;6.10;;;;;;;;;;5029931;28;20049;-60
2021/09/27 07:48:52;;;;;;;23.58;8.13;;;;;;;;;;5027391;28;20038;-61
2021/09/27 07:51:20;;;;;;;8.82;6.63;;;;;;;;;;5025253;28;20517;-60
2021/09/27 07:53:47;;;;;;;13.13;5.18;;;;;;;;;;5028318;28;20046;-60
2021/09/27 07:56:14;;;;;;;14.57;6.07;;;;;;;;;;5031952;28;20029;-60
2021/09/27 07:58:40;;;;;;;10.50;5.30;;;;;;;;;;5029008;28;20091;-60
2021/09/27 08:01:07;;;;;;;9.18;5.05;;;;;;;;;;5027634;28;20121;-61
2021/09/27 08:03:34;;;;;;;6.20;4.35;;;;;;;;;;5025328;28;20034;-61
2021/09/27 08:06:01;;;;;;;10.27;5.40;;;;;;;;;;5027589;28;20073;-61
2021/09/27 08:08:28;;;;;;;6.40;5.82;;;;;;;;;;5014985;28;20037;-60
2021/09/27 08:10:55;;;;;;;6.43;5.82;;;;;;;;;;5030147;28;20034;-60
2021/09/27 08:13:22;;;;;;;12.30;6.38;;;;;;;;;;5028666;28;20112;-60
2021/09/27 08:15:50;;;;;;;11.00;6.20;;;;;;;;;;5028673;28;20460;-60
2021/09/27 08:18:17;;;;;;;12.63;6.35;;;;;;;;;;5026569;28;20466;-61
2021/09/27 08:20:48;;;;;;;10.98;6.57;;;;;;;;;;5019733;28;20048;-60
2021/09/27 08:23:15;;;;;;;13.82;7.68;;;;;;;;;;5031151;28;20076;-60
2021/09/27 08:25:42;;;;;;;13.10;8.55;;;;;;;;;;5029632;28;20057;-60
2021/09/27 08:28:10;;;;;;;10.30;8.32;;;;;;;;;;5030294;28;20049;-60
2021/09/27 08:30:42;;;;;;;7.55;6.68;;;;;;;;;;5029239;28;20041;-59
2021/09/27 08:33:09;;;;;;;11.93;6.93;;;;;;;;;;5030344;28;20128;-59
2021/09/27 08:35:37;;;;;;;13.13;7.28;;;;;;;;;;5030511;28;20080;-59
2021/09/27 08:38:04;;;;;;;15.00;8.52;;;;;;;;;;5028307;28;20077;-61
2021/09/27 08:40:31;;;;;;;13.75;7.57;;;;;;;;;;5030796;28;20726;-59
2021/09/27 08:43:02;;;;;;;8.27;6.60;;;;;;;;;;5029180;28;20065;-60
2021/09/27 08:45:30;;;;;;;8.73;7.97;;;;;;;;;;5029828;28;20148;-59
2021/09/27 08:47:57;;;;;;;12.38;8.93;;;;;;;;;;5029057;28;20037;-60
2021/09/27 08:50:27;;;;;;;9.25;8.35;;;;;;;;;;5029334;28;20140;-60
2021/09/27 08:52:55;;;;;;;11.45;8.48;;;;;;;;;;5029307;28;20112;-59
2021/09/27 08:55:22;;;;;;;17.45;7.82;;;;;;;;;;5028785;28;20021;-59
2021/09/27 08:58:09;;;;;;;8.82;7.38;;;;;;;;;;5023311;28;20069;-60
2021/09/27 09:00:39;;;;;;;11.70;8.00;;;;;;;;;;5028628;28;20096;-59
2021/09/27 09:03:13;;;;;;;13.30;9.02;;;;;;;;;;5029157;28;20040;-61
2021/09/27 09:05:43;;;;;;;8.73;6.68;;;;;;;;;;5028852;28;20046;-60
2021/09/27 09:08:48;;;;;;;8.45;7.47;;;;;;;;;;5029367;28;20038;-60
2021/09/27 09:11:38;;;;;;;11.70;8.10;;;;;;;;;;5037456;28;20041;-60
2021/09/27 09:14:31;;;;;;;13.95;8.20;;;;;;;;;;5020167;28;20084;-60
2021/09/27 09:17:00;;;;;;;17.93;7.13;;;;;;;;;;5025984;28;20636;-59
2021/09/27 09:19:28;;;;;;;9.43;7.13;;;;;;;;;;5019357;28;20769;-61
2021/09/27 09:22:01;;;;;;;8.48;7.50;;;;;;;;;;5028440;28;20065;-60
2021/09/27 09:24:31;;;;;;;13.02;7.00;;;;;;;;;;5025809;28;20045;-59
2021/09/27 09:27:00;;;;;;;14.00;7.78;;;;;;;;;;5021303;28;20042;-60
2021/09/27 09:29:29;;;;;;;12.52;7.35;;;;;;;;;;5025790;28;20152;-59
2021/09/27 09:31:58;;;;;;;14.45;7.35;;;;;;;;;;5029208;28;20378;-60
2021/09/27 09:34:28;;;;;;;11.00;8.60;;;;;;;;;;5029035;28;20117;-60
2021/09/27 09:37:00;;;;;;;12.75;8.02;;;;;;;;;;5028024;28;20029;-60
2021/09/27 09:39:26;;;;;;;12.00;7.93;;;;;;;;;;5025353;28;20038;-59
2021/09/27 09:41:58;;;;;;;10.23;8.68;;;;;;;;;;5030016;28;20568;-59
2021/09/27 09:44:40;;;;;;;10.65;7.60;;;;;;;;;;5028364;28;20056;-58
2021/09/27 09:47:10;;;;;;;10.65;7.45;;;;;;;;;;5027949;28;20083;-59
2021/09/27 09:49:55;;;;;;;8.43;7.30;;;;;;;;;;5029525;28;20033;-59
2021/09/27 09:52:27;;;;;;;15.90;7.53;;;;;;;;;;5017202;28;20068;-60
2021/09/27 09:54:55;;;;;;;14.60;6.60;;;;;;;;;;5027290;28;20124;-59
2021/09/27 09:57:22;;;;;;;18.92;6.65;;;;;;;;;;5016087;28;20100;-60
2021/09/27 09:59:54;;;;;;;10.65;7.43;;;;;;;;;;5028530;28;20454;-59
2021/09/27 10:02:22;;;;;;;14.90;8.80;;;;;;;;;;5026260;28;20045;-59
2021/09/27 10:05:07;;;;;;;10.93;7.68;;;;;;;;;;5027829;28;20566;-60
2021/09/27 10:07:54;;;;;;;12.20;6.20;;;;;;;;;;5026846;28;20033;-59
2021/09/27 10:10:27;;;;;;;8.00;7.30;;;;;;;;;;5023048;28;20064;-59
2021/09/27 10:12:54;;;;;;;17.58;9.52;;;;;;;;;;5028480;28;20524;-59
2021/09/27 10:15:27;;;;;;;11.73;8.18;;;;;;;;;;5028010;28;20120;-59
2021/09/27 10:18:13;;;;;;;14.20;8.45;;;;;;;;;;5031003;28;20053;-60
2021/09/27 10:20:41;;;;;;;10.95;6.85;;;;;;;;;;5027390;28;20140;-59
2021/09/27 10:23:12;;;;;;;11.80;9.02;;;;;;;;;;5025244;28;20050;-60
2021/09/27 10:25:41;;;;;;;13.70;7.72;;;;;;;;;;5030452;28;20068;-60
2021/09/27 10:28:15;;;;;;;8.82;6.47;;;;;;;;;;5026359;28;20053;-59
2021/09/27 10:30:42;;;;;;;17.52;7.03;;;;;;;;;;5017787;28;20759;-59
2021/09/27 10:33:35;;;;;;;8.15;6.80;;;;;;;;;;5026181;28;20041;-59
2021/09/27 10:36:07;;;;;;;12.65;7.57;;;;;;;;;;5027524;28;20076;-60
2021/09/27 10:38:40;;;;;;;;;;;;;;;;;;5029208;28;20113;-59
2021/09/27 10:41:12;;;;;;;12.23;6.85;;;;;;;;;;5023711;28;19983;-60
2021/09/27 10:43:39;;;;;;;21.42;7.47;;;;;;;;;;5020492;28;20049;-59
2021/09/27 10:46:06;;;;;;;11.50;7.97;;;;;;;;;;5028823;28;20045;-59
2021/09/27 10:48:33;;;;;;;9.45;8.15;;;;;;;;;;5027317;28;20124;-61
2021/09/27 10:51:03;;;;;;;15.95;9.32;;;;;;;;;;5028008;28;20069;-59
2021/09/27 10:53:42;;;;;;;11.45;8.02;;;;;;;;;;5025969;28;20033;-59
2021/09/27 10:56:19;;;;;;;15.70;10.85;;;;;;;;;;5016263;28;20045;-58
2021/09/27 10:58:52;;;;;;;11.93;10.70;;;;;;;;;;5025291;28;20065;-59
2021/09/27 11:01:37;;;;;;;16.75;9.70;;;;;;;;;;5019434;28;20107;-59
2021/09/27 11:04:06;;;;;;;9.98;8.90;;;;;;;;;;5028544;28;20045;-60
2021/09/27 11:06:44;;;;;;;12.63;8.73;;;;;;;;;;5026872;28;20473;-59
2021/09/27 11:09:23;;;;;;;17.58;9.68;;;;;;;;;;5027318;28;20124;-59
2021/09/27 11:11:59;;;;;;;15.70;7.60;;;;;;;;;;5027779;28;20037;-59
2021/09/27 11:14:26;;;;;;;20.58;9.55;;;;;;;;;;5025088;28;20104;-59
2021/09/27 11:16:56;;;;;;;14.48;9.88;;;;;;;;;;5026734;28;20378;-58
2021/09/27 11:19:26;;;;;;;13.85;9.70;;;;;;;;;;5027372;28;20099;-59
2021/09/27 11:21:53;;;;;;;19.20;10.10;;;;;;;;;;5030362;28;20092;-60
2021/09/27 11:24:20;;;;;;;16.98;11.68;;;;;;;;;;5027159;28;20145;-59
2021/09/27 11:26:47;;;;;;;16.73;11.07;;;;;;;;;;5024745;28;20155;-58
2021/09/27 11:29:13;;;;;;;12.43;11.13;;;;;;;;;;5027437;28;20111;-60
2021/09/27 11:31:41;;;;;;;15.27;12.75;;;;;;;;;;5027684;28;20065;-60
2021/09/27 11:34:08;;;;;;;16.27;10.85;;;;;;;;;;5017757;28;20038;-59
2021/09/27 11:36:47;;;;;;;11.80;10.73;;;;;;;;;;5033303;28;20056;-58
2021/09/27 11:39:15;;;;;;;11.30;10.10;;;;;;;;;;5023883;28;20065;-59
2021/09/27 11:42:01;;;;;;;12.10;10.80;;;;;;;;;;5028848;28;20045;-59
2021/09/27 11:44:31;;;;;;;14.02;11.13;;;;;;;;;;5029607;28;20050;-58
2021/09/27 11:47:02;;;;;;;27.25;13.05;;;;;;;;;;5019269;28;20065;-58
2021/09/27 11:49:47;;;;;;;12.88;11.73;;;;;;;;;;5030360;28;20041;-58
2021/09/27 11:52:26;;;;;;;13.38;12.13;;;;;;;;;;5029459;28;20033;-59
2021/09/27 11:54:53;;;;;;;9.18;8.27;;;;;;;;;;5017308;28;20174;-58
2021/09/27 11:57:32;;;;;;;12.45;10.50;;;;;;;;;;5031896;28;20087;-58
2021/09/27 12:00:10;;;;;;;11.52;10.45;;;;;;;;;;5029561;28;20159;-58
2021/09/27 12:02:37;;;;;;;11.32;10.70;;;;;;;;;;5028877;28;20367;-60
2021/09/27 12:05:26;;;;;;;9.82;9.13;;;;;;;;;;5029284;28;20116;-60
2021/09/27 12:07:57;;;;;;;10.93;10.23;;;;;;;;;;5021101;28;20064;-59
2021/09/27 12:10:27;;;;;;;11.93;10.85;;;;;;;;;;5027903;28;20536;-60
2021/09/27 12:12:55;;;;;;;12.32;11.43;;;;;;;;;;5027916;28;20046;-59
2021/09/27 12:15:24;;;;;;;12.13;10.90;;;;;;;;;;5020113;28;20041;-59
2021/09/27 12:17:51;;;;;;;15.07;11.10;;;;;;;;;;5029221;28;20120;-58
2021/09/27 12:20:19;;;;;;;13.80;11.27;;;;;;;;;;5028798;28;20728;-58
2021/09/27 12:22:51;;;;;;;12.73;10.80;;;;;;;;;;5031290;28;20438;-58
2021/09/27 12:25:21;;;;;;;11.75;10.82;;;;;;;;;;5027787;28;20457;-59
2021/09/27 12:27:50;;;;;;;11.23;9.98;;;;;;;;;;5013564;28;20059;-59
2021/09/27 12:30:20;;;;;;;12.07;10.15;;;;;;;;;;5029412;28;20436;-59
2021/09/27 12:32:59;;;;;;;8.48;7.95;;;;;;;;;;5028531;28;20038;-59
2021/09/27 12:35:31;;;;;;;10.00;8.98;;;;;;;;;;5027313;28;20443;-59
2021/09/27 12:37:58;;;;;;;14.20;9.32;;;;;;;;;;5025749;28;20038;-61
2021/09/27 12:40:29;;;;;;;9.75;8.80;;;;;;;;;;5029246;28;20120;-59
2021/09/27 12:43:02;;;;;;;8.38;7.65;;;;;;;;;;5028989;28;20128;-59
2021/09/27 12:45:38;;;;;;;8.00;7.45;;;;;;;;;;5030518;28;20133;-60
2021/09/27 12:48:08;;;;;;;10.75;8.20;;;;;;;;;;5029952;28;20041;-59
2021/09/27 12:50:36;;;;;;;7.07;6.50;;;;;;;;;;5026867;28;20045;-59
2021/09/27 12:53:06;;;;;;;7.20;6.80;;;;;;;;;;5022696;28;20034;-59
2021/09/27 12:55:45;;;;;;;6.68;6.38;;;;;;;;;;5027035;28;20061;-59
2021/09/27 12:58:35;;;;;;;7.13;6.70;;;;;;;;;;5029262;28;20052;-59
2021/09/27 13:01:04;;;;;;;7.78;6.68;;;;;;;;;;5017441;28;20431;-59
2021/09/27 13:03:31;;;;;;;5.78;5.32;;;;;;;;;;5027338;28;20543;-58
2021/09/27 13:05:58;;;;;;;7.88;5.93;;;;;;;;;;5030675;28;20099;-58
2021/09/27 13:08:26;;;;;;;5.97;5.50;;;;;;;;;;5029839;28;20045;-59
2021/09/27 13:10:55;;;;;;;6.53;6.00;;;;;;;;;;5029053;28;20029;-58
2021/09/27 13:13:22;;;;;;;6.25;5.75;;;;;;;;;;5029644;28;20073;-59
2021/09/27 13:16:00;;;;;;;7.38;6.65;;;;;;;;;;5028025;28;20042;-58
2021/09/27 13:18:33;;;;;;;7.20;6.57;;;;;;;;;;5026662;28;20508;-59
2021/09/27 13:21:12;;;;;;;6.32;6.03;;;;;;;;;;5029185;28;20041;-58
2021/09/27 13:23:40;;;;;;;5.65;5.35;;;;;;;;;;5028972;28;20041;-52
2021/09/27 13:26:15;;;;;;;6.57;4.38;;;;;;;;;;5023858;28;20474;-52
2021/09/27 13:28:45;;;;;;;6.95;6.55;;;;;;;;;;5028716;28;20129;-57
2021/09/27 13:31:19;;;;;;;8.48;7.63;;;;;;;;;;5028261;28;20042;-58
2021/09/27 13:33:47;;;;;;;7.10;6.50;;;;;;;;;;5028198;28;20033;-58
2021/09/27 13:36:30;;;;;;;8.13;7.47;;;;;;;;;;5028066;28;20046;-59
2021/09/27 13:38:59;;;;;;;8.02;7.57;;;;;;;;;;5025723;28;20121;-58
2021/09/27 13:41:37;;;;;;;7.93;6.90;;;;;;;;;;5026255;28;20499;-57
2021/09/27 13:44:05;;;;;;;8.10;7.57;;;;;;;;;;5021215;28;20553;-58
2021/09/27 13:46:32;;;;;;;7.53;7.13;;;;;;;;;;5027919;28;20041;-57
2021/09/27 13:49:00;;;;;;;9.30;8.63;;;;;;;;;;5024920;28;20041;-58
2021/09/27 13:51:29;;;;;;;8.48;7.80;;;;;;;;;;5029604;28;20066;-58
2021/09/27 13:53:58;;;;;;;8.45;7.75;;;;;;;;;;5028092;28;20513;-57
2021/09/27 13:56:29;;;;;;;8.43;7.82;;;;;;;;;;5018094;28;20068;-57
2021/09/27 13:58:56;;;;;;;8.43;7.90;;;;;;;;;;5027706;28;20099;-58
2021/09/27 14:01:23;;;;;;;10.48;9.38;;;;;;;;;;5024726;28;20073;-58
2021/09/27 14:03:50;;;;;;;9.63;9.00;;;;;;;;;;5011318;28;20050;-57
2021/09/27 14:06:18;;;;;;;9.27;8.45;;;;;;;;;;5030046;28;20053;-57
2021/09/27 14:08:45;;;;;;;8.98;8.32;;;;;;;;;;5028706;28;20046;-58
2021/09/27 14:11:12;;;;;;;9.07;8.43;;;;;;;;;;5028345;28;20037;-57
2021/09/27 14:13:41;;;;;;;10.60;9.55;;;;;;;;;;5022448;28;20096;-57
2021/09/27 14:16:10;;;;;;;9.32;8.63;;;;;;;;;;5025740;28;20065;-57
2021/09/27 14:18:37;;;;;;;10.20;9.43;;;;;;;;;;5026430;28;20033;-59
2021/09/27 14:21:04;;;;;;;10.32;9.48;;;;;;;;;;5030852;28;20091;-58
2021/09/27 14:23:32;;;;;;;9.38;8.63;;;;;;;;;;5028970;28;20038;-57
2021/09/27 14:25:59;;;;;;;9.98;8.18;;;;;;;;;;5026517;28;20038;-56
2021/09/27 14:28:27;;;;;;;10.45;9.55;;;;;;;;;;5028497;28;20054;-59
2021/09/27 14:30:54;;;;;;;9.55;9.02;;;;;;;;;;5023641;28;20129;-57
2021/09/27 14:33:24;;;;;;;10.43;9.82;;;;;;;;;;5023516;28;20052;-56
2021/09/27 14:35:50;;;;;;;11.05;10.15;;;;;;;;;;5028823;28;20107;-58
2021/09/27 14:38:17;;;;;;;11.85;10.07;;;;;;;;;;5026740;28;20117;-57
2021/09/27 14:40:44;;;;;;;12.88;11.15;;;;;;;;;;5026587;28;20041;-57
2021/09/27 14:43:11;;;;;;;11.07;10.13;;;;;;;;;;5025169;28;20037;-58
2021/09/27 14:45:38;;;;;;;10.85;9.95;;;;;;;;;;5028850;28;20037;-57
2021/09/27 14:48:05;;;;;;;11.07;10.23;;;;;;;;;;5026104;28;20160;-57
2021/09/27 14:50:35;;;;;;;11.95;10.88;;;;;;;;;;5020428;28;20128;-57
2021/09/27 14:53:02;;;;;;;12.13;11.05;;;;;;;;;;5028234;28;20119;-57
2021/09/27 14:55:36;;;;;;;11.07;10.48;;;;;;;;;;5028783;28;20037;-57
2021/09/27 14:58:06;;;;;;;12.27;11.35;;;;;;;;;;5032274;28;20033;-57
2021/09/27 15:00:33;;;;;;;12.82;11.60;;;;;;;;;;5031614;28;20045;-58
2021/09/27 15:03:00;;;;;;;14.35;10.60;;;;;;;;;;5030633;28;20045;-57
2021/09/27 15:05:27;;;;;;;14.02;12.13;;;;;;;;;;5032785;28;20042;-58
2021/09/27 15:07:54;;;;;;;11.65;10.98;;;;;;;;;;5031435;28;20041;-58
2021/09/27 15:10:21;;;;;;;11.52;10.75;;;;;;;;;;5028167;28;20132;-58